Time;durP1;ratioP1;P1;durP2;ratioP2;P2;SDS_P1;SDS_P2;PMS_P1;PMS_P2;Temp;Humidity;BMP_temperature;BMP_pressure;BME280_temperature;BME280_humidity;BME280_pressure;Samples;Min_cycle;Max_cycle;Signal;HPM_P1;HPM_P2
2023/03/29 00:00:35;;;;;;;7.20;4.03;;;6.00;99.90;;;;;;4859489;29;20253;-58
2023/03/29 00:03:03;;;;;;;8.20;4.23;;;6.00;99.90;;;;;;4864251;29;20245;-58
2023/03/29 00:05:34;;;;;;;7.00;3.93;;;5.90;99.90;;;;;;4860498;29;20680;-57
2023/03/29 00:08:03;;;;;;;6.60;4.00;;;6.00;99.90;;;;;;4860404;29;20229;-59
2023/03/29 00:10:33;;;;;;;5.93;4.00;;;5.90;99.90;;;;;;4859736;29;20237;-58
2023/03/29 00:13:01;;;;;;;7.77;4.20;;;6.20;99.90;;;;;;4859946;29;20242;-58
2023/03/29 00:15:30;;;;;;;6.20;3.60;;;6.30;99.90;;;;;;4860139;29;20246;-58
2023/03/29 00:17:59;;;;;;;7.90;4.40;;;6.10;99.90;;;;;;4860377;29;20281;-58
2023/03/29 00:20:28;;;;;;;6.93;4.30;;;6.00;99.90;;;;;;4860020;29;20230;-57
2023/03/29 00:22:56;;;;;;;7.07;3.83;;;6.00;99.90;;;;;;4860215;29;20246;-58
2023/03/29 00:25:24;;;;;;;5.77;3.97;;;6.00;99.90;;;;;;4860809;29;20229;-58
2023/03/29 00:27:52;;;;;;;5.50;3.83;;;5.90;99.90;;;;;;4860539;29;20258;-58
2023/03/29 00:30:21;;;;;;;6.77;4.10;;;5.90;99.90;;;;;;4859806;29;20265;-58
2023/03/29 00:32:50;;;;;;;7.73;3.70;;;5.90;99.90;;;;;;4872132;29;20712;-58
2023/03/29 00:35:19;;;;;;;7.23;4.17;;;5.90;99.90;;;;;;4860149;29;20226;-58
2023/03/29 00:37:49;;;;;;;7.40;4.17;;;5.90;99.90;;;;;;4859991;29;20317;-58
2023/03/29 00:40:18;;;;;;;7.37;3.80;;;5.90;99.90;;;;;;4860043;29;20298;-58
2023/03/29 00:42:46;;;;;;;6.20;3.73;;;5.90;99.90;;;;;;4859997;29;20245;-58
2023/03/29 00:45:20;;;;;;;6.07;3.90;;;5.90;99.90;;;;;;4843411;29;20324;-58
2023/03/29 00:47:50;;;;;;;7.37;3.83;;;5.90;99.90;;;;;;4859750;29;20717;-58
2023/03/29 00:50:24;;;;;;;6.10;3.60;;;5.90;99.90;;;;;;4843370;29;20707;-58
2023/03/29 00:52:59;;;;;;;5.73;3.97;;;5.90;99.90;;;;;;4874228;29;20236;-57
2023/03/29 00:55:31;;;;;;;8.50;4.20;;;5.80;99.90;;;;;;4859830;29;20702;-58
2023/03/29 00:58:01;;;;;;;10.73;4.17;;;5.80;99.90;;;;;;4860375;29;20648;-58
2023/03/29 01:00:34;;;;;;;6.73;4.33;;;5.80;99.90;;;;;;4859197;29;20759;-58
2023/03/29 01:03:12;;;;;;;7.13;4.27;;;5.80;99.90;;;;;;4847506;29;20783;-58
2023/03/29 01:05:46;;;;;;;6.33;4.43;;;5.80;99.90;;;;;;4859795;29;20234;-58
2023/03/29 01:08:20;;;;;;;6.07;4.20;;;5.80;99.90;;;;;;4859794;29;20238;-58
2023/03/29 01:10:53;;;;;;;6.60;4.13;;;5.80;99.90;;;;;;4859627;29;20223;-58
2023/03/29 01:13:27;;;;;;;7.73;3.93;;;5.80;99.90;;;;;;4859895;29;20735;-58
2023/03/29 01:15:57;;;;;;;8.87;3.93;;;5.70;99.90;;;;;;4859793;29;20589;-58
2023/03/29 01:18:25;;;;;;;9.57;4.50;;;5.70;99.90;;;;;;4848461;29;20566;-58
2023/03/29 01:21:13;;;;;;;5.70;4.30;;;5.80;99.90;;;;;;4844277;29;20239;-58
2023/03/29 01:24:06;;;;;;;9.77;4.30;;;5.70;99.90;;;;;;4873830;29;20237;-58
2023/03/29 01:26:47;;;;;;;7.83;4.03;;;5.60;99.90;;;;;;4877307;29;20872;-57
2023/03/29 01:29:23;;;;;;;8.07;4.03;;;5.70;99.90;;;;;;4863067;29;20226;-58
2023/03/29 01:31:54;;;;;;;8.00;4.20;;;5.60;99.90;;;;;;4881013;29;20254;-58
2023/03/29 01:34:27;;;;;;;6.23;4.20;;;5.60;99.90;;;;;;4862896;29;20240;-57
2023/03/29 01:37:03;;;;;;;7.40;4.30;;;5.60;99.90;;;;;;4862827;29;20226;-58
2023/03/29 01:39:33;;;;;;;6.13;3.87;;;5.50;99.90;;;;;;4862500;29;20589;-58
2023/03/29 01:42:24;;;;;;;7.80;4.30;;;5.50;99.90;;;;;;4846053;29;20241;-57
2023/03/29 01:44:58;;;;;;;7.83;4.37;;;5.50;99.90;;;;;;4862806;29;20715;-58
2023/03/29 01:47:33;;;;;;;6.97;4.17;;;5.50;99.90;;;;;;4862787;29;20718;-58
2023/03/29 01:50:09;;;;;;;6.90;4.20;;;5.50;99.90;;;;;;4869739;29;20246;-58
2023/03/29 01:52:43;;;;;;;7.10;3.83;;;5.50;99.90;;;;;;4862368;29;20239;-58
2023/03/29 01:55:16;;;;;;;7.77;4.07;;;5.50;99.90;;;;;;4862596;29;20249;-57
2023/03/29 01:57:47;;;;;;;7.07;3.90;;;5.50;99.90;;;;;;4861825;29;20290;-57
2023/03/29 02:00:23;;;;;;;9.63;3.77;;;5.50;99.90;;;;;;4845635;29;20244;-58
2023/03/29 02:02:54;;;;;;;6.13;3.37;;;5.40;99.90;;;;;;4866400;29;20254;-58
2023/03/29 02:05:25;;;;;;;8.83;4.03;;;5.40;99.90;;;;;;4876596;29;20252;-58
2023/03/29 02:08:00;;;;;;;8.77;3.90;;;5.40;99.90;;;;;;4876832;29;20226;-58
2023/03/29 02:10:29;;;;;;;9.30;4.00;;;5.40;99.90;;;;;;4871692;29;20231;-57
2023/03/29 02:12:57;;;;;;;10.07;4.00;;;5.40;99.90;;;;;;4862191;29;20233;-58
2023/03/29 02:15:27;;;;;;;7.10;3.87;;;5.40;99.90;;;;;;4861752;29;20626;-58
2023/03/29 02:17:56;;;;;;;6.20;3.83;;;5.30;99.90;;;;;;4861022;29;20317;-58
2023/03/29 02:20:28;;;;;;;5.27;3.77;;;5.30;99.90;;;;;;4876192;29;20238;-58
2023/03/29 02:23:04;;;;;;;4.53;3.40;;;5.30;99.90;;;;;;4862043;29;20229;-58
2023/03/29 02:25:32;;;;;;;8.40;3.80;;;5.30;99.90;;;;;;4845407;29;20266;-58
2023/03/29 02:28:01;;;;;;;6.33;3.53;;;5.20;99.90;;;;;;4845446;29;20258;-58
2023/03/29 02:30:37;;;;;;;13.03;4.23;;;5.20;99.90;;;;;;4844930;29;20230;-57
2023/03/29 02:33:10;;;;;;;6.50;3.30;;;5.20;99.90;;;;;;4865972;29;20237;-57
2023/03/29 02:35:47;;;;;;;4.97;3.00;;;5.20;99.90;;;;;;4844591;29;20283;-58
2023/03/29 02:38:16;;;;;;;6.50;3.20;;;5.20;99.90;;;;;;4861757;29;20246;-58
2023/03/29 02:40:45;;;;;;;6.73;3.60;;;5.20;99.90;;;;;;4844734;29;20245;-57
2023/03/29 02:43:15;;;;;;;6.20;3.60;;;5.10;99.90;;;;;;4861687;29;20258;-58
2023/03/29 02:45:46;;;;;;;6.17;3.40;;;5.10;99.90;;;;;;4861608;29;20463;-58
2023/03/29 02:48:20;;;;;;;7.03;3.40;;;5.10;99.90;;;;;;4845018;29;20238;-57
2023/03/29 02:50:51;;;;;;;4.47;3.27;;;5.00;99.90;;;;;;4875524;29;20725;-57
2023/03/29 02:53:22;;;;;;;4.87;3.10;;;5.00;99.90;;;;;;4875808;29;20253;-57
2023/03/29 02:55:53;;;;;;;5.80;3.30;;;5.00;99.90;;;;;;4845351;29;20268;-57
2023/03/29 02:58:28;;;;;;;5.00;3.70;;;5.00;99.90;;;;;;4861480;29;20229;-57
2023/03/29 03:01:00;;;;;;;7.40;3.20;;;5.00;99.90;;;;;;4860952;29;20302;-58
2023/03/29 03:03:28;;;;;;;6.20;2.93;;;5.00;99.90;;;;;;4865500;29;20236;-57
2023/03/29 03:06:00;;;;;;;6.40;3.07;;;5.00;99.90;;;;;;4861311;29;20759;-58
2023/03/29 03:08:30;;;;;;;5.77;3.23;;;5.00;99.90;;;;;;4875328;29;20702;-57
2023/03/29 03:10:59;;;;;;;7.03;3.30;;;5.00;99.90;;;;;;4860968;29;20232;-57
2023/03/29 03:13:27;;;;;;;4.90;2.97;;;5.00;99.90;;;;;;4861075;29;20737;-57
2023/03/29 03:15:57;;;;;;;6.30;3.00;;;5.00;99.90;;;;;;4844582;29;20282;-58
2023/03/29 03:18:26;;;;;;;6.73;3.17;;;4.90;99.90;;;;;;4878403;29;20525;-57
2023/03/29 03:20:55;;;;;;;7.43;3.20;;;4.90;99.90;;;;;;4860740;29;20532;-58
2023/03/29 03:23:24;;;;;;;5.87;3.20;;;4.90;99.90;;;;;;4844457;29;20322;-57
2023/03/29 03:25:52;;;;;;;6.67;3.37;;;4.90;99.90;;;;;;4875375;29;20583;-58
2023/03/29 03:28:23;;;;;;;4.97;3.50;;;4.90;99.90;;;;;;4861303;29;20831;-58
2023/03/29 03:30:51;;;;;;;7.27;3.20;;;4.90;99.90;;;;;;4859130;29;20230;-58
2023/03/29 03:33:27;;;;;;;5.03;2.97;;;4.90;99.90;;;;;;4864985;29;20352;-58
2023/03/29 03:36:14;;;;;;;7.13;3.30;;;5.00;99.90;;;;;;4842685;29;20471;-58
2023/03/29 03:38:44;;;;;;;6.73;3.97;;;5.00;99.90;;;;;;4861655;29;20880;-58
2023/03/29 03:41:13;;;;;;;9.80;3.40;;;5.00;99.90;;;;;;4843795;29;20479;-57
2023/03/29 03:43:42;;;;;;;5.40;3.43;;;4.90;99.90;;;;;;4844023;29;20243;-57
2023/03/29 03:46:11;;;;;;;6.70;4.10;;;5.00;99.90;;;;;;4859526;29;20317;-58
2023/03/29 03:48:40;;;;;;;8.77;3.57;;;4.90;99.90;;;;;;4850184;29;20567;-58
2023/03/29 03:51:14;;;;;;;8.97;3.83;;;4.80;99.90;;;;;;4843938;29;20281;-57
2023/03/29 03:53:42;;;;;;;6.40;3.50;;;4.90;99.90;;;;;;4843777;29;20273;-58
2023/03/29 03:56:13;;;;;;;5.83;3.70;;;4.90;99.90;;;;;;4860879;29;20234;-58
2023/03/29 03:58:58;;;;;;;7.90;4.47;;;4.90;99.90;;;;;;4860878;29;20655;-57
2023/03/29 04:01:28;;;;;;;8.43;4.33;;;4.90;99.90;;;;;;4861413;29;20651;-57
2023/03/29 04:04:07;;;;;;;10.13;4.20;;;4.90;99.90;;;;;;4867215;29;20226;-58
2023/03/29 04:06:35;;;;;;;5.47;4.10;;;4.90;99.90;;;;;;4844212;29;20701;-57
2023/03/29 04:09:22;;;;;;;8.53;4.90;;;4.90;99.90;;;;;;4860306;29;20650;-58
2023/03/29 04:12:03;;;;;;;7.67;4.50;;;4.90;99.90;;;;;;4843733;29;20374;-57
2023/03/29 04:14:31;;;;;;;9.17;4.77;;;4.90;99.90;;;;;;4843692;29;20226;-58
2023/03/29 04:17:19;;;;;;;5.97;4.57;;;4.90;99.90;;;;;;4859889;29;20230;-57
2023/03/29 04:20:12;;;;;;;8.60;5.50;;;4.90;99.90;;;;;;4858611;29;20241;-57
2023/03/29 04:22:41;;;;;;;6.60;5.10;;;4.80;99.90;;;;;;4846275;29;20282;-58
2023/03/29 04:25:10;;;;;;;7.17;5.23;;;4.90;99.90;;;;;;4843538;29;20728;-58
2023/03/29 04:27:48;;;;;;;8.00;5.60;;;4.90;99.90;;;;;;4857614;29;20226;-58
2023/03/29 04:30:35;;;;;;;7.70;5.07;;;4.90;99.90;;;;;;4859199;29;20242;-57
2023/03/29 04:33:22;;;;;;;9.73;5.70;;;4.90;99.90;;;;;;4847384;29;20476;-57
2023/03/29 04:35:59;;;;;;;7.37;5.67;;;4.90;99.90;;;;;;4858266;29;20235;-58
2023/03/29 04:38:28;;;;;;;9.50;5.83;;;4.90;99.90;;;;;;4843033;29;20718;-57
2023/03/29 04:40:56;;;;;;;8.87;6.10;;;4.90;99.90;;;;;;4860111;29;20657;-58
2023/03/29 04:43:37;;;;;;;10.10;6.47;;;4.90;99.90;;;;;;4843298;29;20276;-57
2023/03/29 04:46:25;;;;;;;9.43;7.17;;;4.90;99.90;;;;;;4843337;29;20234;-57
2023/03/29 04:49:19;;;;;;;10.57;7.83;;;4.90;99.90;;;;;;4842431;29;20235;-57
2023/03/29 04:51:53;;;;;;;13.03;7.60;;;4.90;99.90;;;;;;4874374;29;20234;-58
2023/03/29 04:54:24;;;;;;;11.13;7.90;;;4.90;99.90;;;;;;4874141;29;20802;-57
2023/03/29 04:57:05;;;;;;;12.53;8.60;;;4.90;99.90;;;;;;4873387;29;20246;-58
2023/03/29 04:59:47;;;;;;;11.80;9.30;;;5.00;99.90;;;;;;4871943;29;20706;-58
2023/03/29 05:02:34;;;;;;;11.63;8.80;;;5.00;99.90;;;;;;4866842;29;20486;-57
2023/03/29 05:05:02;;;;;;;14.30;10.37;;;4.90;99.90;;;;;;4862725;29;20517;-57
2023/03/29 05:07:32;;;;;;;13.53;11.03;;;5.00;99.90;;;;;;4846551;29;20239;-58
2023/03/29 05:10:00;;;;;;;14.77;11.00;;;5.10;99.90;;;;;;4873468;29;20830;-57
2023/03/29 05:12:29;;;;;;;11.40;9.77;;;5.10;99.90;;;;;;4845423;29;20483;-58
2023/03/29 05:14:57;;;;;;;12.33;10.80;;;5.10;99.90;;;;;;4846822;29;20737;-57
2023/03/29 05:17:27;;;;;;;13.47;11.20;;;5.20;99.90;;;;;;4846469;29;20227;-57
2023/03/29 05:20:06;;;;;;;12.90;11.20;;;5.20;99.90;;;;;;4853486;29;20509;-57
2023/03/29 05:22:37;;;;;;;17.50;11.60;;;5.30;99.90;;;;;;4846290;29;20701;-57
2023/03/29 05:25:09;;;;;;;14.83;10.70;;;5.20;99.90;;;;;;4846403;29;20241;-58
2023/03/29 05:27:38;;;;;;;14.67;12.43;;;5.30;99.90;;;;;;4846097;29;20985;-57
2023/03/29 05:30:10;;;;;;;17.27;11.90;;;5.30;99.90;;;;;;4846530;29;20233;-58
2023/03/29 05:32:49;;;;;;;15.13;11.87;;;5.30;99.90;;;;;;4860280;29;20318;-57
2023/03/29 05:35:24;;;;;;;16.37;12.53;;;5.30;99.90;;;;;;4845815;29;20222;-58
2023/03/29 05:37:55;;;;;;;13.10;11.20;;;5.30;99.90;;;;;;4862799;29;20281;-58
2023/03/29 05:40:25;;;;;;;14.87;11.17;;;5.20;99.90;;;;;;4845783;29;20238;-58
2023/03/29 05:43:13;;;;;;;16.40;11.53;;;5.30;99.90;;;;;;4860726;29;20226;-58
2023/03/29 05:45:41;;;;;;;14.23;11.87;;;5.30;99.90;;;;;;4843091;29;20269;-58
2023/03/29 05:48:09;;;;;;;18.10;11.80;;;5.30;99.90;;;;;;4879925;29;20644;-58
2023/03/29 05:50:41;;;;;;;18.70;11.57;;;5.30;99.90;;;;;;4855407;29;20639;-58
2023/03/29 05:53:14;;;;;;;16.17;11.27;;;5.30;99.90;;;;;;4849791;29;20906;-57
2023/03/29 05:55:43;;;;;;;12.70;10.30;;;5.30;99.90;;;;;;4852631;29;20237;-57
2023/03/29 05:58:14;;;;;;;14.53;10.57;;;5.30;99.90;;;;;;4845823;29;20241;-58
2023/03/29 06:00:43;;;;;;;13.17;10.17;;;5.40;99.90;;;;;;4841207;29;20243;-58
2023/03/29 06:03:27;;;;;;;12.13;10.53;;;5.40;99.90;;;;;;4845308;29;20322;-58
2023/03/29 06:06:01;;;;;;;13.70;10.90;;;5.40;99.90;;;;;;4845722;29;20757;-57
2023/03/29 06:08:31;;;;;;;12.47;9.97;;;5.40;99.90;;;;;;4861869;29;20235;-58
2023/03/29 06:11:28;;;;;;;11.40;9.47;;;5.40;99.90;;;;;;4843544;29;20235;-57
2023/03/29 06:14:15;;;;;;;14.43;10.97;;;5.50;99.90;;;;;;4850054;29;20320;-58
2023/03/29 06:16:50;;;;;;;13.33;10.77;;;5.50;99.90;;;;;;4858299;29;20313;-58
2023/03/29 06:19:18;;;;;;;13.10;10.03;;;5.50;99.90;;;;;;4853614;29;20239;-58
2023/03/29 06:21:47;;;;;;;14.10;10.90;;;5.60;99.90;;;;;;4845304;29;20227;-58
2023/03/29 06:24:23;;;;;;;13.20;10.37;;;5.60;99.90;;;;;;4876354;29;20345;-58
2023/03/29 06:26:58;;;;;;;11.40;10.00;;;5.60;99.90;;;;;;4844916;29;20234;-57
2023/03/29 06:29:26;;;;;;;13.17;9.90;;;5.70;99.90;;;;;;4842612;29;20730;-58
2023/03/29 06:31:55;;;;;;;15.20;10.33;;;5.70;99.90;;;;;;4848551;29;20702;-58
2023/03/29 06:34:42;;;;;;;11.77;9.50;;;5.80;99.90;;;;;;4842165;29;20238;-58
2023/03/29 06:37:23;;;;;;;12.30;9.70;;;5.80;99.90;;;;;;4843024;29;20321;-58
2023/03/29 06:40:06;;;;;;;16.27;11.57;;;5.70;99.90;;;;;;4844508;29;20242;-59
2023/03/29 06:42:44;;;;;;;14.03;10.50;;;5.70;99.90;;;;;;4842337;29;21400;-58
2023/03/29 06:45:34;;;;;;;13.40;10.03;;;5.70;99.90;;;;;;4843721;29;20246;-58
2023/03/29 06:48:07;;;;;;;13.10;10.73;;;5.70;99.90;;;;;;4860969;29;20239;-57
2023/03/29 06:50:36;;;;;;;12.70;10.03;;;5.70;99.90;;;;;;4848100;29;20234;-58
2023/03/29 06:53:12;;;;;;;13.00;10.10;;;5.80;99.90;;;;;;4835966;29;20234;-58
2023/03/29 06:55:43;;;;;;;12.47;9.67;;;5.80;99.90;;;;;;4844462;29;20239;-58
2023/03/29 06:58:37;;;;;;;13.33;10.17;;;5.90;99.90;;;;;;4849300;29;20230;-59
2023/03/29 07:01:17;;;;;;;12.03;9.60;;;5.90;99.90;;;;;;4870403;29;20246;-58
2023/03/29 07:03:50;;;;;;;11.00;9.13;;;6.00;99.90;;;;;;4846128;29;20686;-58
2023/03/29 07:06:25;;;;;;;10.50;8.77;;;6.00;99.90;;;;;;4844179;29;20237;-58
2023/03/29 07:08:58;;;;;;;9.50;8.00;;;6.10;99.90;;;;;;4843989;29;20738;-58
2023/03/29 07:11:46;;;;;;;13.07;8.83;;;6.10;99.90;;;;;;4838469;29;20222;-58
2023/03/29 07:14:19;;;;;;;10.43;9.10;;;6.20;99.90;;;;;;4868860;29;20246;-58
2023/03/29 07:16:50;;;;;;;11.10;8.83;;;6.20;99.90;;;;;;4843320;29;20602;-58
2023/03/29 07:19:26;;;;;;;9.87;8.60;;;6.20;99.90;;;;;;4868008;29;20309;-58
2023/03/29 07:21:54;;;;;;;9.90;8.30;;;6.30;99.90;;;;;;4859339;29;20564;-59
2023/03/29 07:24:34;;;;;;;11.70;7.97;;;6.30;99.90;;;;;;4842724;29;20234;-58
2023/03/29 07:27:03;;;;;;;10.13;8.17;;;6.30;99.90;;;;;;4858766;29;20230;-58
2023/03/29 07:29:33;;;;;;;9.20;7.90;;;6.40;99.90;;;;;;4843830;29;20599;-58
2023/03/29 07:32:01;;;;;;;10.63;7.43;;;6.50;99.90;;;;;;4864663;29;20257;-58
2023/03/29 07:34:51;;;;;;;8.93;7.70;;;6.50;99.90;;;;;;4875121;29;20337;-58
2023/03/29 07:37:29;;;;;;;10.97;7.57;;;6.50;99.90;;;;;;4843168;29;20729;-58
2023/03/29 07:40:00;;;;;;;9.07;7.20;;;6.60;99.90;;;;;;4854862;29;20698;-58
2023/03/29 07:42:40;;;;;;;7.97;6.60;;;6.60;99.90;;;;;;4871342;29;20564;-59
2023/03/29 07:45:13;;;;;;;9.50;6.43;;;6.70;99.90;;;;;;4870765;29;20242;-59
2023/03/29 07:47:55;;;;;;;8.37;7.20;;;6.70;99.90;;;;;;4868964;29;20237;-58
2023/03/29 07:50:24;;;;;;;6.60;5.93;;;6.80;99.90;;;;;;4840039;29;20576;-58
2023/03/29 07:52:56;;;;;;;8.00;6.57;;;6.90;99.90;;;;;;4838521;29;20574;-58
2023/03/29 07:55:24;;;;;;;7.87;6.47;;;7.00;99.90;;;;;;4872024;29;20226;-58
2023/03/29 07:58:03;;;;;;;8.13;6.90;;;7.00;99.90;;;;;;4834550;29;20240;-58
2023/03/29 08:00:33;;;;;;;7.57;6.67;;;7.10;99.90;;;;;;4861520;29;20373;-59
2023/03/29 08:03:27;;;;;;;7.63;6.43;;;7.20;99.90;;;;;;4856981;29;20239;-58
2023/03/29 08:05:55;;;;;;;8.13;6.67;;;7.40;99.90;;;;;;4856551;29;20270;-59
2023/03/29 08:08:25;;;;;;;7.23;5.93;;;7.40;99.90;;;;;;4851423;29;20698;-58
2023/03/29 08:10:57;;;;;;;7.47;5.97;;;7.50;99.90;;;;;;4838816;29;20231;-59
2023/03/29 08:13:37;;;;;;;7.77;5.83;;;7.50;99.90;;;;;;4833790;29;20707;-58
2023/03/29 08:16:34;;;;;;;11.60;6.70;;;7.50;99.90;;;;;;4857915;29;20235;-58
2023/03/29 08:19:08;;;;;;;7.27;6.20;;;7.40;99.90;;;;;;4845788;29;20231;-58
2023/03/29 08:21:54;;;;;;;10.97;6.27;;;7.50;99.90;;;;;;4860020;29;20341;-58
2023/03/29 08:24:26;;;;;;;8.67;6.27;;;7.50;99.90;;;;;;4868645;29;20251;-59
2023/03/29 08:26:58;;;;;;;6.77;5.80;;;7.50;99.90;;;;;;4840964;29;20237;-59
2023/03/29 08:29:30;;;;;;;7.27;6.57;;;7.50;99.90;;;;;;4857131;29;20753;-58
2023/03/29 08:31:59;;;;;;;10.00;6.33;;;7.50;99.90;;;;;;4848545;29;20246;-59
2023/03/29 08:34:27;;;;;;;7.90;6.20;;;7.60;99.90;;;;;;4873139;29;20276;-58
2023/03/29 08:37:08;;;;;;;7.57;6.27;;;7.60;99.90;;;;;;4840407;29;20639;-59
2023/03/29 08:39:41;;;;;;;7.13;6.43;;;7.60;99.90;;;;;;4846902;29;20230;-58
2023/03/29 08:43:02;;;;;;;6.57;5.87;;;7.70;99.90;;;;;;4850965;29;20231;-59
2023/03/29 08:45:58;;;;;;;8.77;6.60;;;7.80;99.90;;;;;;4842154;29;20261;-60
2023/03/29 08:48:29;;;;;;;7.20;6.47;;;7.80;99.90;;;;;;4880836;29;20237;-59
2023/03/29 08:51:05;;;;;;;7.07;5.73;;;7.80;99.90;;;;;;4871985;29;20747;-59
2023/03/29 08:53:43;;;;;;;8.33;6.23;;;7.90;99.90;;;;;;4845229;29;21514;-60
2023/03/29 08:56:20;;;;;;;7.83;6.10;;;8.10;99.90;;;;;;4872955;29;20235;-59
2023/03/29 08:59:20;;;;;;;8.70;6.37;;;8.00;99.90;;;;;;4844157;29;20247;-60
2023/03/29 09:01:53;;;;;;;7.57;5.63;;;8.10;99.90;;;;;;4834525;29;20235;-59
2023/03/29 09:04:26;;;;;;;7.73;6.53;;;8.20;99.90;;;;;;4848348;29;20289;-59
2023/03/29 09:07:03;;;;;;;8.93;6.67;;;8.20;99.90;;;;;;4841695;29;20272;-59
2023/03/29 09:09:38;;;;;;;8.60;6.53;;;8.30;99.90;;;;;;4875256;29;20578;-60
2023/03/29 09:12:25;;;;;;;7.30;5.67;;;8.30;99.90;;;;;;4871789;29;20636;-59
2023/03/29 09:15:07;;;;;;;7.13;6.10;;;8.40;99.90;;;;;;4840740;29;20313;-59
2023/03/29 09:17:48;;;;;;;7.73;6.17;;;8.50;99.90;;;;;;4859945;29;20766;-59
2023/03/29 09:20:27;;;;;;;7.30;6.40;;;8.50;99.90;;;;;;4850818;29;20710;-60
2023/03/29 09:23:07;;;;;;;9.60;6.30;;;8.50;99.90;;;;;;4857130;29;20318;-59
2023/03/29 09:25:57;;;;;;;10.03;6.53;;;8.40;99.90;;;;;;4845196;29;20230;-59
2023/03/29 09:28:39;;;;;;;10.47;7.00;;;8.40;99.90;;;;;;4870662;29;20264;-59
2023/03/29 09:31:14;;;;;;;9.53;7.03;;;8.30;99.90;;;;;;4858241;29;20253;-60
2023/03/29 09:33:52;;;;;;;9.60;6.87;;;8.40;99.90;;;;;;4875565;29;20313;-60
2023/03/29 09:36:30;;;;;;;7.33;6.10;;;8.50;99.90;;;;;;4844203;29;20242;-59
2023/03/29 09:38:58;;;;;;;11.80;7.07;;;8.50;99.90;;;;;;4857629;29;20242;-59
2023/03/29 09:41:35;;;;;;;8.57;6.60;;;8.50;99.90;;;;;;4871929;29;21365;-59
2023/03/29 09:44:08;;;;;;;9.03;6.93;;;8.50;99.90;;;;;;4861669;29;20725;-60
2023/03/29 09:46:54;;;;;;;7.60;6.13;;;8.60;99.90;;;;;;4842584;29;20245;-61
2023/03/29 09:49:31;;;;;;;10.37;6.77;;;8.70;99.90;;;;;;4840267;29;20238;-60
2023/03/29 09:52:04;;;;;;;9.17;6.67;;;8.90;99.90;;;;;;4842798;29;20234;-59
2023/03/29 09:54:33;;;;;;;9.07;6.83;;;9.20;99.90;;;;;;4842516;29;20314;-59
2023/03/29 09:57:04;;;;;;;9.53;7.07;;;9.30;99.90;;;;;;4858147;29;20242;-61
2023/03/29 09:59:32;;;;;;;7.80;6.87;;;9.40;99.90;;;;;;4837675;29;20239;-59
2023/03/29 10:02:07;;;;;;;8.60;6.57;;;9.30;99.90;;;;;;4866817;29;20238;-59
2023/03/29 10:04:37;;;;;;;9.40;6.73;;;9.40;99.90;;;;;;4869380;29;20781;-59
2023/03/29 10:07:08;;;;;;;10.10;7.50;;;9.30;99.90;;;;;;4838012;29;20733;-61
2023/03/29 10:09:37;;;;;;;9.83;7.27;;;9.40;99.90;;;;;;4837230;29;20244;-61
2023/03/29 10:12:16;;;;;;;8.63;6.70;;;9.40;99.90;;;;;;4840862;29;20232;-59
2023/03/29 10:14:48;;;;;;;10.60;7.17;;;9.40;99.90;;;;;;4860772;29;20244;-60
2023/03/29 10:17:21;;;;;;;10.37;7.10;;;9.40;99.90;;;;;;4857301;29;20578;-59
2023/03/29 10:19:53;;;;;;;8.63;7.37;;;9.20;99.90;;;;;;4860395;29;20332;-59
2023/03/29 10:22:24;;;;;;;11.13;8.17;;;9.10;99.90;;;;;;4858966;29;20223;-59
2023/03/29 10:24:53;;;;;;;8.73;7.27;;;9.10;99.90;;;;;;4859648;29;20239;-60
2023/03/29 10:27:24;;;;;;;8.50;7.63;;;9.10;99.90;;;;;;4861345;29;20240;-59
2023/03/29 10:29:54;;;;;;;14.33;8.50;;;9.10;99.90;;;;;;4864529;29;20248;-61
2023/03/29 10:32:32;;;;;;;10.33;8.13;;;9.10;99.90;;;;;;4860462;29;20241;-60
2023/03/29 10:35:09;;;;;;;10.50;8.50;;;9.20;99.90;;;;;;4858598;29;20243;-60
2023/03/29 10:37:40;;;;;;;11.87;8.10;;;9.20;99.90;;;;;;4854128;29;20231;-60
2023/03/29 10:40:20;;;;;;;10.13;8.17;;;9.20;99.90;;;;;;4853296;29;20237;-60
2023/03/29 10:42:50;;;;;;;9.83;8.43;;;9.30;99.90;;;;;;4849467;29;20240;-60
2023/03/29 10:45:23;;;;;;;12.87;9.23;;;9.30;99.90;;;;;;4850047;29;20235;-59
2023/03/29 10:47:54;;;;;;;13.10;10.57;;;9.20;99.90;;;;;;4849421;29;20266;-59
2023/03/29 10:50:25;;;;;;;10.70;8.83;;;9.20;99.90;;;;;;4852335;29;20250;-60
2023/03/29 10:52:53;;;;;;;11.73;10.13;;;9.30;99.90;;;;;;4852385;29;20757;-60
2023/03/29 10:55:24;;;;;;;12.67;10.00;;;9.30;99.90;;;;;;4850697;29;20263;-60
2023/03/29 10:58:03;;;;;;;12.93;10.23;;;9.20;99.90;;;;;;4849584;29;20240;-60
2023/03/29 11:00:37;;;;;;;10.57;9.40;;;9.20;99.90;;;;;;4853237;29;20297;-60
2023/03/29 11:03:27;;;;;;;10.70;9.13;;;9.10;99.90;;;;;;4861807;29;20294;-61
2023/03/29 11:06:06;;;;;;;11.50;9.20;;;9.10;99.90;;;;;;4840520;29;20295;-59
2023/03/29 11:08:48;;;;;;;11.63;9.67;;;9.10;99.90;;;;;;4860886;29;20245;-59
2023/03/29 11:11:46;;;;;;;14.67;10.07;;;9.00;99.90;;;;;;4860299;29;20235;-59
2023/03/29 11:14:23;;;;;;;14.50;10.30;;;9.10;99.90;;;;;;4859885;29;20240;-60
2023/03/29 11:17:06;;;;;;;11.77;9.30;;;9.10;99.90;;;;;;4856774;29;20230;-60
2023/03/29 11:19:54;;;;;;;12.50;8.87;;;9.20;99.90;;;;;;4852064;29;21509;-60
2023/03/29 11:22:35;;;;;;;11.27;9.60;;;9.20;99.90;;;;;;4852971;29;20233;-60
2023/03/29 11:25:19;;;;;;;11.27;9.40;;;9.30;99.90;;;;;;4853758;29;20242;-60
2023/03/29 11:27:54;;;;;;;12.63;9.87;;;9.40;99.90;;;;;;4851944;29;20236;-60
2023/03/29 11:30:28;;;;;;;12.23;10.23;;;9.50;99.90;;;;;;4856144;29;20495;-59
2023/03/29 11:33:03;;;;;;;11.10;9.63;;;9.50;99.90;;;;;;4859327;29;20243;-60
2023/03/29 11:35:45;;;;;;;11.70;9.87;;;9.50;99.90;;;;;;4861029;29;20294;-59
2023/03/29 11:38:22;;;;;;;13.83;10.23;;;9.60;99.90;;;;;;4857983;29;20771;-60
2023/03/29 11:40:58;;;;;;;13.07;11.27;;;9.70;99.90;;;;;;4856986;29;20736;-59
2023/03/29 11:43:32;;;;;;;12.10;10.80;;;9.70;99.90;;;;;;4852431;29;20244;-60
2023/03/29 11:46:08;;;;;;;12.67;10.60;;;9.80;99.90;;;;;;4855748;29;20231;-59
2023/03/29 11:48:41;;;;;;;12.20;10.90;;;9.80;99.90;;;;;;4852760;29;20750;-60
2023/03/29 11:51:14;;;;;;;11.73;10.53;;;9.80;99.90;;;;;;4855446;29;20234;-61
2023/03/29 11:53:52;;;;;;;11.87;10.33;;;9.80;99.90;;;;;;4855276;29;20694;-59
2023/03/29 11:56:28;;;;;;;14.43;10.97;;;9.70;99.90;;;;;;4853546;29;20302;-59
2023/03/29 11:59:03;;;;;;;12.83;11.53;;;9.70;99.90;;;;;;4855216;29;20360;-59
2023/03/29 12:01:36;;;;;;;11.70;10.50;;;9.70;99.90;;;;;;4851290;29;20254;-60
2023/03/29 12:04:11;;;;;;;11.30;10.20;;;9.80;99.90;;;;;;4851381;29;20243;-59
2023/03/29 12:06:46;;;;;;;13.67;10.60;;;9.90;99.90;;;;;;4849582;29;20319;-60
2023/03/29 12:09:25;;;;;;;13.77;10.60;;;9.90;99.90;;;;;;4852549;29;20251;-60
2023/03/29 12:12:01;;;;;;;13.40;12.00;;;9.90;99.90;;;;;;4853773;29;20289;-61
2023/03/29 12:14:42;;;;;;;13.20;11.10;;;9.90;99.90;;;;;;4858190;29;20313;-60
2023/03/29 12:17:15;;;;;;;13.73;11.97;;;9.90;99.90;;;;;;4856937;29;20795;-60
2023/03/29 12:19:49;;;;;;;14.13;11.93;;;9.90;99.90;;;;;;4851429;29;20239;-60
2023/03/29 12:22:17;;;;;;;13.77;11.90;;;10.00;99.90;;;;;;4849375;29;20593;-60
2023/03/29 12:24:52;;;;;;;14.10;12.57;;;10.10;99.90;;;;;;4851094;29;20243;-61
2023/03/29 12:27:25;;;;;;;13.07;11.63;;;10.10;99.90;;;;;;4852245;29;20591;-61
2023/03/29 12:30:18;;;;;;;16.37;12.80;;;10.10;99.90;;;;;;4854512;29;20242;-60
2023/03/29 12:33:01;;;;;;;14.00;12.50;;;10.20;99.90;;;;;;4856678;29;20243;-59
2023/03/29 12:35:57;;;;;;;15.07;12.87;;;10.30;99.90;;;;;;4855520;29;20265;-59
2023/03/29 12:38:39;;;;;;;15.27;13.67;;;10.30;99.90;;;;;;4857765;29;20240;-60
2023/03/29 12:41:16;;;;;;;14.77;12.93;;;10.30;99.90;;;;;;4853124;29;20645;-60
2023/03/29 12:44:03;;;;;;;14.63;13.03;;;10.50;99.90;;;;;;4851657;29;20387;-61
2023/03/29 12:46:53;;;;;;;14.10;12.60;;;10.50;99.90;;;;;;4853398;29;20773;-60
2023/03/29 12:49:28;;;;;;;14.77;13.10;;;10.70;99.90;;;;;;4855610;29;20743;-59
2023/03/29 12:51:58;;;;;;;13.70;12.30;;;10.80;99.90;;;;;;4856460;29;20243;-60
2023/03/29 12:54:30;;;;;;;14.23;12.53;;;10.80;99.90;;;;;;4851097;29;20224;-59
2023/03/29 12:57:02;;;;;;;14.63;12.70;;;10.80;99.90;;;;;;4849860;29;20244;-59
2023/03/29 12:59:38;;;;;;;14.10;12.73;;;10.80;99.90;;;;;;4852086;29;20708;-59
2023/03/29 13:02:36;;;;;;;14.47;12.90;;;10.90;99.90;;;;;;4852921;29;20252;-60
2023/03/29 13:05:29;;;;;;;13.93;12.43;;;10.90;99.90;;;;;;4856176;29;20256;-62
2023/03/29 13:07:57;;;;;;;12.90;11.60;;;11.00;99.90;;;;;;4853372;29;21539;-60
2023/03/29 13:10:37;;;;;;;14.80;13.40;;;11.10;99.90;;;;;;4853237;29;20703;-59
2023/03/29 13:13:17;;;;;;;13.47;12.17;;;11.10;99.90;;;;;;4858779;29;20251;-62
2023/03/29 13:15:46;;;;;;;11.70;10.50;;;11.30;99.90;;;;;;4855928;29;20245;-61
2023/03/29 13:18:32;;;;;;;13.03;11.73;;;11.50;99.90;;;;;;4853936;29;20244;-60
2023/03/29 13:21:11;;;;;;;12.53;11.13;;;11.60;99.90;;;;;;4857389;29;20580;-60
2023/03/29 13:23:48;;;;;;;13.13;11.30;;;11.70;99.90;;;;;;4858371;29;20304;-60
2023/03/29 13:26:30;;;;;;;13.53;12.13;;;11.50;99.90;;;;;;4858549;29;20244;-60
2023/03/29 13:29:38;;;;;;;14.03;12.27;;;11.30;99.90;;;;;;4854424;29;20229;-60